sensor_id;sensor_type;location;lat;lon;timestamp;temperature;humidity
18408;DHT22;9330;52.210;21.174;2023-09-19T00:01:33;18.60;99.90
18408;DHT22;9330;52.210;21.174;2023-09-19T00:04:01;18.60;99.90
18408;DHT22;9330;52.210;21.174;2023-09-19T00:06:29;18.60;99.90
18408;DHT22;9330;52.210;21.174;2023-09-19T00:08:57;18.50;99.90
18408;DHT22;9330;52.210;21.174;2023-09-19T00:11:25;18.50;99.90
18408;DHT22;9330;52.210;21.174;2023-09-19T00:13:52;18.50;99.90
18408;DHT22;9330;52.210;21.174;2023-09-19T00:16:20;18.50;99.90
18408;DHT22;9330;52.210;21.174;2023-09-19T00:18:47;18.50;99.90
18408;DHT22;9330;52.210;21.174;2023-09-19T00:21:16;18.40;99.90
18408;DHT22;9330;52.210;21.174;2023-09-19T00:23:45;18.40;99.90
18408;DHT22;9330;52.210;21.174;2023-09-19T00:26:12;18.40;99.90
18408;DHT22;9330;52.210;21.174;2023-09-19T00:28:39;18.30;99.90
18408;DHT22;9330;52.210;21.174;2023-09-19T00:31:08;18.30;99.90
18408;DHT22;9330;52.210;21.174;2023-09-19T00:33:35;18.30;99.90
18408;DHT22;9330;52.210;21.174;2023-09-19T00:36:02;18.30;99.90
18408;DHT22;9330;52.210;21.174;2023-09-19T00:38:32;18.30;99.90
18408;DHT22;9330;52.210;21.174;2023-09-19T00:40:59;18.30;99.90
18408;DHT22;9330;52.210;21.174;2023-09-19T00:43:26;18.30;99.90
18408;DHT22;9330;52.210;21.174;2023-09-19T00:45:55;18.20;99.90
18408;DHT22;9330;52.210;21.174;2023-09-19T00:48:22;18.30;99.90
18408;DHT22;9330;52.210;21.174;2023-09-19T00:50:51;18.20;99.90
18408;DHT22;9330;52.210;21.174;2023-09-19T00:53:21;18.20;99.90
18408;DHT22;9330;52.210;21.174;2023-09-19T00:55:51;18.20;99.90
18408;DHT22;9330;52.210;21.174;2023-09-19T00:58:19;18.20;99.90
18408;DHT22;9330;52.210;21.174;2023-09-19T01:00:47;18.20;99.90
18408;DHT22;9330;52.210;21.174;2023-09-19T01:03:14;18.20;99.90
18408;DHT22;9330;52.210;21.174;2023-09-19T01:05:41;18.20;99.90
18408;DHT22;9330;52.210;21.174;2023-09-19T01:08:08;18.20;99.90
18408;DHT22;9330;52.210;21.174;2023-09-19T01:10:41;18.10;99.90
18408;DHT22;9330;52.210;21.174;2023-09-19T01:13:21;18.20;99.90
18408;DHT22;9330;52.210;21.174;2023-09-19T01:15:58;18.10;99.90
18408;DHT22;9330;52.210;21.174;2023-09-19T01:18:35;18.10;99.90
18408;DHT22;9330;52.210;21.174;2023-09-19T01:21:07;18.00;99.90
18408;DHT22;9330;52.210;21.174;2023-09-19T01:23:46;18.10;99.90
18408;DHT22;9330;52.210;21.174;2023-09-19T01:26:42;18.10;99.90
18408;DHT22;9330;52.210;21.174;2023-09-19T01:29:24;18.00;99.90
18408;DHT22;9330;52.210;21.174;2023-09-19T01:31:58;18.00;99.90
18408;DHT22;9330;52.210;21.174;2023-09-19T01:34:27;18.00;99.90
18408;DHT22;9330;52.210;21.174;2023-09-19T01:36:53;18.00;99.90
18408;DHT22;9330;52.210;21.174;2023-09-19T01:39:20;18.00;99.90
18408;DHT22;9330;52.210;21.174;2023-09-19T01:41:56;18.00;99.90
18408;DHT22;9330;52.210;21.174;2023-09-19T01:44:38;18.00;99.90
18408;DHT22;9330;52.210;21.174;2023-09-19T01:47:19;18.00;99.90
18408;DHT22;9330;52.210;21.174;2023-09-19T01:49:55;18.00;99.90
18408;DHT22;9330;52.210;21.174;2023-09-19T01:52:29;18.00;99.90
18408;DHT22;9330;52.210;21.174;2023-09-19T01:55:01;18.00;99.90
18408;DHT22;9330;52.210;21.174;2023-09-19T01:57:34;17.90;99.90
18408;DHT22;9330;52.210;21.174;2023-09-19T02:00:07;17.90;99.90
18408;DHT22;9330;52.210;21.174;2023-09-19T02:02:37;17.90;99.90
18408;DHT22;9330;52.210;21.174;2023-09-19T02:05:04;17.90;99.90
18408;DHT22;9330;52.210;21.174;2023-09-19T02:07:32;17.90;99.90
18408;DHT22;9330;52.210;21.174;2023-09-19T02:09:58;17.90;99.90
18408;DHT22;9330;52.210;21.174;2023-09-19T02:12:26;17.90;99.90
18408;DHT22;9330;52.210;21.174;2023-09-19T02:14:53;17.90;99.90
18408;DHT22;9330;52.210;21.174;2023-09-19T02:17:20;17.90;99.90
18408;DHT22;9330;52.210;21.174;2023-09-19T02:19:48;17.90;99.90
18408;DHT22;9330;52.210;21.174;2023-09-19T02:22:14;17.90;99.90
18408;DHT22;9330;52.210;21.174;2023-09-19T02:24:41;18.00;99.90
18408;DHT22;9330;52.210;21.174;2023-09-19T02:27:08;17.90;99.90
18408;DHT22;9330;52.210;21.174;2023-09-19T02:29:38;17.90;99.90
18408;DHT22;9330;52.210;21.174;2023-09-19T02:32:05;17.90;99.90
18408;DHT22;9330;52.210;21.174;2023-09-19T02:34:31;17.90;99.90
18408;DHT22;9330;52.210;21.174;2023-09-19T02:37:03;17.90;99.90
18408;DHT22;9330;52.210;21.174;2023-09-19T02:39:30;17.90;99.90
18408;DHT22;9330;52.210;21.174;2023-09-19T02:41:57;17.80;99.90
18408;DHT22;9330;52.210;21.174;2023-09-19T02:44:24;17.80;99.90
18408;DHT22;9330;52.210;21.174;2023-09-19T02:46:51;17.80;99.90
18408;DHT22;9330;52.210;21.174;2023-09-19T02:49:18;17.80;99.90
18408;DHT22;9330;52.210;21.174;2023-09-19T02:51:44;17.70;99.90
18408;DHT22;9330;52.210;21.174;2023-09-19T02:54:14;17.70;99.90
18408;DHT22;9330;52.210;21.174;2023-09-19T02:56:41;17.70;99.90
18408;DHT22;9330;52.210;21.174;2023-09-19T02:59:08;17.60;99.90
18408;DHT22;9330;52.210;21.174;2023-09-19T03:01:35;17.60;99.90
18408;DHT22;9330;52.210;21.174;2023-09-19T03:04:03;17.60;99.90
18408;DHT22;9330;52.210;21.174;2023-09-19T03:06:34;17.60;99.90
18408;DHT22;9330;52.210;21.174;2023-09-19T03:09:00;17.60;99.90
18408;DHT22;9330;52.210;21.174;2023-09-19T03:11:32;17.60;99.90
18408;DHT22;9330;52.210;21.174;2023-09-19T03:13:59;17.60;99.90
18408;DHT22;9330;52.210;21.174;2023-09-19T03:16:26;17.50;99.90
18408;DHT22;9330;52.210;21.174;2023-09-19T03:18:53;17.50;99.90
18408;DHT22;9330;52.210;21.174;2023-09-19T03:21:19;17.50;99.90
18408;DHT22;9330;52.210;21.174;2023-09-19T03:23:47;17.50;99.90
18408;DHT22;9330;52.210;21.174;2023-09-19T03:26:14;17.40;99.90
18408;DHT22;9330;52.210;21.174;2023-09-19T03:28:43;17.40;99.90
18408;DHT22;9330;52.210;21.174;2023-09-19T03:31:11;17.40;99.90
18408;DHT22;9330;52.210;21.174;2023-09-19T03:33:39;17.30;99.90
18408;DHT22;9330;52.210;21.174;2023-09-19T03:36:06;17.40;99.90
18408;DHT22;9330;52.210;21.174;2023-09-19T03:38:33;17.30;99.90
18408;DHT22;9330;52.210;21.174;2023-09-19T03:41:00;17.30;99.90
18408;DHT22;9330;52.210;21.174;2023-09-19T03:43:27;17.30;99.90
18408;DHT22;9330;52.210;21.174;2023-09-19T03:45:55;17.30;99.90
18408;DHT22;9330;52.210;21.174;2023-09-19T03:48:23;17.30;99.90
18408;DHT22;9330;52.210;21.174;2023-09-19T03:50:49;17.20;99.90
18408;DHT22;9330;52.210;21.174;2023-09-19T03:53:16;17.30;99.90
18408;DHT22;9330;52.210;21.174;2023-09-19T03:55:44;17.20;99.90
18408;DHT22;9330;52.210;21.174;2023-09-19T03:58:11;17.10;99.90
18408;DHT22;9330;52.210;21.174;2023-09-19T04:00:38;17.20;99.90
18408;DHT22;9330;52.210;21.174;2023-09-19T04:03:07;17.10;99.90
18408;DHT22;9330;52.210;21.174;2023-09-19T04:05:34;17.20;99.90
18408;DHT22;9330;52.210;21.174;2023-09-19T04:08:01;17.10;99.90
18408;DHT22;9330;52.210;21.174;2023-09-19T04:10:28;17.10;99.90
18408;DHT22;9330;52.210;21.174;2023-09-19T04:12:55;17.10;99.90
18408;DHT22;9330;52.210;21.174;2023-09-19T04:15:22;17.00;99.90
18408;DHT22;9330;52.210;21.174;2023-09-19T04:17:50;17.10;99.90
18408;DHT22;9330;52.210;21.174;2023-09-19T04:20:18;17.00;99.90
18408;DHT22;9330;52.210;21.174;2023-09-19T04:22:46;17.00;99.90
18408;DHT22;9330;52.210;21.174;2023-09-19T04:25:13;17.10;99.90
18408;DHT22;9330;52.210;21.174;2023-09-19T04:27:40;17.00;99.90
18408;DHT22;9330;52.210;21.174;2023-09-19T04:30:08;17.00;99.90
18408;DHT22;9330;52.210;21.174;2023-09-19T04:32:37;17.00;99.90
18408;DHT22;9330;52.210;21.174;2023-09-19T04:35:06;17.10;99.90
18408;DHT22;9330;52.210;21.174;2023-09-19T04:37:37;17.10;99.90
18408;DHT22;9330;52.210;21.174;2023-09-19T04:40:07;17.00;99.90
18408;DHT22;9330;52.210;21.174;2023-09-19T04:42:39;17.10;99.90
18408;DHT22;9330;52.210;21.174;2023-09-19T04:45:07;17.10;99.90
18408;DHT22;9330;52.210;21.174;2023-09-19T04:47:35;17.10;99.90
18408;DHT22;9330;52.210;21.174;2023-09-19T04:50:06;17.20;99.90
18408;DHT22;9330;52.210;21.174;2023-09-19T04:52:39;17.00;99.90
18408;DHT22;9330;52.210;21.174;2023-09-19T04:55:08;17.20;99.90
18408;DHT22;9330;52.210;21.174;2023-09-19T04:57:35;17.20;99.90
18408;DHT22;9330;52.210;21.174;2023-09-19T05:00:05;17.20;99.90
18408;DHT22;9330;52.210;21.174;2023-09-19T05:02:38;17.30;99.90
18408;DHT22;9330;52.210;21.174;2023-09-19T05:05:06;17.30;99.90
18408;DHT22;9330;52.210;21.174;2023-09-19T05:07:33;17.40;99.90
18408;DHT22;9330;52.210;21.174;2023-09-19T05:10:02;17.40;99.90
18408;DHT22;9330;52.210;21.174;2023-09-19T05:12:31;17.60;99.90
18408;DHT22;9330;52.210;21.174;2023-09-19T05:14:58;17.50;99.90
18408;DHT22;9330;52.210;21.174;2023-09-19T05:17:24;17.60;99.90
18408;DHT22;9330;52.210;21.174;2023-09-19T05:19:51;17.60;99.90
18408;DHT22;9330;52.210;21.174;2023-09-19T05:22:20;17.70;99.90
18408;DHT22;9330;52.210;21.174;2023-09-19T05:24:47;17.70;99.90
18408;DHT22;9330;52.210;21.174;2023-09-19T05:27:15;17.80;99.90
18408;DHT22;9330;52.210;21.174;2023-09-19T05:29:43;17.80;99.90
18408;DHT22;9330;52.210;21.174;2023-09-19T05:32:10;17.80;99.90
18408;DHT22;9330;52.210;21.174;2023-09-19T05:34:37;17.80;99.90
18408;DHT22;9330;52.210;21.174;2023-09-19T05:37:04;17.80;99.90
18408;DHT22;9330;52.210;21.174;2023-09-19T05:39:32;17.90;99.90
18408;DHT22;9330;52.210;21.174;2023-09-19T05:41:59;18.00;99.90
18408;DHT22;9330;52.210;21.174;2023-09-19T05:44:28;18.00;99.90
18408;DHT22;9330;52.210;21.174;2023-09-19T05:46:54;18.00;99.90
18408;DHT22;9330;52.210;21.174;2023-09-19T05:49:23;18.00;99.90
18408;DHT22;9330;52.210;21.174;2023-09-19T05:51:51;18.00;99.90
18408;DHT22;9330;52.210;21.174;2023-09-19T05:54:19;18.00;99.90
18408;DHT22;9330;52.210;21.174;2023-09-19T05:56:46;18.00;99.90
18408;DHT22;9330;52.210;21.174;2023-09-19T05:59:14;18.00;99.90
18408;DHT22;9330;52.210;21.174;2023-09-19T06:01:43;18.00;99.90
18408;DHT22;9330;52.210;21.174;2023-09-19T06:04:10;18.00;99.90
18408;DHT22;9330;52.210;21.174;2023-09-19T06:06:36;18.10;99.90
18408;DHT22;9330;52.210;21.174;2023-09-19T06:09:05;18.10;99.90
18408;DHT22;9330;52.210;21.174;2023-09-19T06:11:34;18.20;99.90
18408;DHT22;9330;52.210;21.174;2023-09-19T06:14:00;18.20;99.90
18408;DHT22;9330;52.210;21.174;2023-09-19T06:16:27;18.20;99.90
18408;DHT22;9330;52.210;21.174;2023-09-19T06:18:56;18.30;99.90
18408;DHT22;9330;52.210;21.174;2023-09-19T06:21:25;18.40;99.90
18408;DHT22;9330;52.210;21.174;2023-09-19T06:23:52;18.40;99.90
18408;DHT22;9330;52.210;21.174;2023-09-19T06:26:19;18.40;99.90
18408;DHT22;9330;52.210;21.174;2023-09-19T06:28:46;18.50;99.90
18408;DHT22;9330;52.210;21.174;2023-09-19T06:31:13;18.50;99.90
18408;DHT22;9330;52.210;21.174;2023-09-19T06:33:40;18.50;99.90
18408;DHT22;9330;52.210;21.174;2023-09-19T06:36:08;18.50;99.90
18408;DHT22;9330;52.210;21.174;2023-09-19T06:38:35;18.60;99.90
18408;DHT22;9330;52.210;21.174;2023-09-19T06:41:02;18.60;99.90
18408;DHT22;9330;52.210;21.174;2023-09-19T06:43:32;18.70;99.90
18408;DHT22;9330;52.210;21.174;2023-09-19T06:45:59;18.70;99.90
18408;DHT22;9330;52.210;21.174;2023-09-19T06:48:26;18.90;99.90
18408;DHT22;9330;52.210;21.174;2023-09-19T06:50:54;18.80;99.90
18408;DHT22;9330;52.210;21.174;2023-09-19T06:53:25;19.00;99.90
18408;DHT22;9330;52.210;21.174;2023-09-19T06:55:52;18.90;99.90
18408;DHT22;9330;52.210;21.174;2023-09-19T06:58:19;18.90;99.90
18408;DHT22;9330;52.210;21.174;2023-09-19T07:00:46;18.90;99.90
18408;DHT22;9330;52.210;21.174;2023-09-19T07:03:15;19.00;99.90
18408;DHT22;9330;52.210;21.174;2023-09-19T07:05:47;19.10;99.90
18408;DHT22;9330;52.210;21.174;2023-09-19T07:08:14;19.20;99.90
18408;DHT22;9330;52.210;21.174;2023-09-19T07:10:43;19.30;99.90
18408;DHT22;9330;52.210;21.174;2023-09-19T07:13:14;19.40;99.90
18408;DHT22;9330;52.210;21.174;2023-09-19T07:15:43;19.40;99.90
18408;DHT22;9330;52.210;21.174;2023-09-19T07:18:13;19.50;99.90
18408;DHT22;9330;52.210;21.174;2023-09-19T07:20:42;19.60;99.90
18408;DHT22;9330;52.210;21.174;2023-09-19T07:23:14;19.70;99.90
18408;DHT22;9330;52.210;21.174;2023-09-19T07:25:43;19.90;99.90
18408;DHT22;9330;52.210;21.174;2023-09-19T07:28:10;20.00;99.90
18408;DHT22;9330;52.210;21.174;2023-09-19T07:30:37;20.10;99.90
18408;DHT22;9330;52.210;21.174;2023-09-19T07:33:05;20.30;99.90
18408;DHT22;9330;52.210;21.174;2023-09-19T07:35:32;20.50;99.90
18408;DHT22;9330;52.210;21.174;2023-09-19T07:37:59;20.70;99.90
18408;DHT22;9330;52.210;21.174;2023-09-19T07:40:27;20.80;99.90
18408;DHT22;9330;52.210;21.174;2023-09-19T07:42:56;20.90;99.90
18408;DHT22;9330;52.210;21.174;2023-09-19T07:45:27;20.90;99.90
18408;DHT22;9330;52.210;21.174;2023-09-19T07:47:55;20.90;99.90
18408;DHT22;9330;52.210;21.174;2023-09-19T07:50:22;20.80;99.90
18408;DHT22;9330;52.210;21.174;2023-09-19T07:52:50;20.70;99.90
18408;DHT22;9330;52.210;21.174;2023-09-19T07:55:18;20.70;99.90
18408;DHT22;9330;52.210;21.174;2023-09-19T07:57:46;20.80;99.90
18408;DHT22;9330;52.210;21.174;2023-09-19T08:00:15;21.10;99.90
18408;DHT22;9330;52.210;21.174;2023-09-19T08:02:42;21.30;99.90
18408;DHT22;9330;52.210;21.174;2023-09-19T08:05:10;21.50;99.90
18408;DHT22;9330;52.210;21.174;2023-09-19T08:07:42;21.50;99.90
18408;DHT22;9330;52.210;21.174;2023-09-19T08:10:10;21.40;99.90
18408;DHT22;9330;52.210;21.174;2023-09-19T08:12:38;21.40;99.90
18408;DHT22;9330;52.210;21.174;2023-09-19T08:15:13;21.30;99.90
18408;DHT22;9330;52.210;21.174;2023-09-19T08:17:40;21.30;99.90
18408;DHT22;9330;52.210;21.174;2023-09-19T08:20:08;21.30;99.90
18408;DHT22;9330;52.210;21.174;2023-09-19T08:22:42;21.40;99.90
18408;DHT22;9330;52.210;21.174;2023-09-19T08:25:11;21.50;99.90
18408;DHT22;9330;52.210;21.174;2023-09-19T08:27:38;21.50;99.90
18408;DHT22;9330;52.210;21.174;2023-09-19T08:30:06;21.60;99.90
18408;DHT22;9330;52.210;21.174;2023-09-19T08:32:34;21.60;99.90
18408;DHT22;9330;52.210;21.174;2023-09-19T08:35:01;21.60;99.90
18408;DHT22;9330;52.210;21.174;2023-09-19T08:37:30;21.70;99.90
18408;DHT22;9330;52.210;21.174;2023-09-19T08:39:56;21.70;99.90
18408;DHT22;9330;52.210;21.174;2023-09-19T08:42:23;21.70;99.90
18408;DHT22;9330;52.210;21.174;2023-09-19T08:44:51;21.70;99.90
18408;DHT22;9330;52.210;21.174;2023-09-19T08:47:33;21.70;99.90
18408;DHT22;9330;52.210;21.174;2023-09-19T08:50:07;21.60;99.90
18408;DHT22;9330;52.210;21.174;2023-09-19T08:52:42;21.50;99.90
18408;DHT22;9330;52.210;21.174;2023-09-19T08:55:12;21.60;99.90
18408;DHT22;9330;52.210;21.174;2023-09-19T08:57:46;21.60;99.90
18408;DHT22;9330;52.210;21.174;2023-09-19T09:00:15;21.60;99.90
18408;DHT22;9330;52.210;21.174;2023-09-19T09:02:44;21.60;99.90
18408;DHT22;9330;52.210;21.174;2023-09-19T09:05:14;21.60;99.90
18408;DHT22;9330;52.210;21.174;2023-09-19T09:07:42;21.60;99.90
18408;DHT22;9330;52.210;21.174;2023-09-19T09:10:10;21.50;99.90
18408;DHT22;9330;52.210;21.174;2023-09-19T09:12:37;21.50;99.90
18408;DHT22;9330;52.210;21.174;2023-09-19T09:15:06;21.40;99.90
18408;DHT22;9330;52.210;21.174;2023-09-19T09:17:34;21.50;99.90
18408;DHT22;9330;52.210;21.174;2023-09-19T09:20:01;21.40;99.90
18408;DHT22;9330;52.210;21.174;2023-09-19T09:22:32;21.40;99.90
18408;DHT22;9330;52.210;21.174;2023-09-19T09:24:59;21.40;99.90
18408;DHT22;9330;52.210;21.174;2023-09-19T09:27:29;21.30;99.90
18408;DHT22;9330;52.210;21.174;2023-09-19T09:29:57;21.30;99.90
18408;DHT22;9330;52.210;21.174;2023-09-19T09:32:25;21.30;99.90
18408;DHT22;9330;52.210;21.174;2023-09-19T09:34:55;21.10;99.90
18408;DHT22;9330;52.210;21.174;2023-09-19T09:37:23;21.10;99.90
18408;DHT22;9330;52.210;21.174;2023-09-19T09:39:52;21.00;99.90
18408;DHT22;9330;52.210;21.174;2023-09-19T09:42:32;21.00;99.90
18408;DHT22;9330;52.210;21.174;2023-09-19T09:45:22;21.00;99.90
18408;DHT22;9330;52.210;21.174;2023-09-19T09:47:54;21.00;99.90
18408;DHT22;9330;52.210;21.174;2023-09-19T09:50:26;21.00;99.90
18408;DHT22;9330;52.210;21.174;2023-09-19T09:52:55;20.90;99.90
18408;DHT22;9330;52.210;21.174;2023-09-19T09:55:58;20.80;99.90
18408;DHT22;9330;52.210;21.174;2023-09-19T09:58:26;20.80;99.90
18408;DHT22;9330;52.210;21.174;2023-09-19T10:00:55;20.80;99.90
18408;DHT22;9330;52.210;21.174;2023-09-19T10:03:33;20.60;99.90
18408;DHT22;9330;52.210;21.174;2023-09-19T10:06:06;20.50;99.90
18408;DHT22;9330;52.210;21.174;2023-09-19T10:09:00;20.40;99.90
18408;DHT22;9330;52.210;21.174;2023-09-19T10:11:44;20.20;99.90
18408;DHT22;9330;52.210;21.174;2023-09-19T10:14:13;20.10;99.90
18408;DHT22;9330;52.210;21.174;2023-09-19T10:16:45;20.00;99.90
18408;DHT22;9330;52.210;21.174;2023-09-19T10:19:16;19.80;99.90
18408;DHT22;9330;52.210;21.174;2023-09-19T10:21:50;19.70;99.90
18408;DHT22;9330;52.210;21.174;2023-09-19T10:24:22;19.60;99.90
18408;DHT22;9330;52.210;21.174;2023-09-19T10:26:52;19.50;99.90
18408;DHT22;9330;52.210;21.174;2023-09-19T10:29:21;19.40;99.90
18408;DHT22;9330;52.210;21.174;2023-09-19T10:31:49;19.30;99.90
18408;DHT22;9330;52.210;21.174;2023-09-19T10:34:20;19.20;99.90
18408;DHT22;9330;52.210;21.174;2023-09-19T10:36:48;19.10;99.90
18408;DHT22;9330;52.210;21.174;2023-09-19T10:39:17;19.00;99.90
18408;DHT22;9330;52.210;21.174;2023-09-19T10:41:51;19.00;99.90
18408;DHT22;9330;52.210;21.174;2023-09-19T10:44:23;19.00;99.90
18408;DHT22;9330;52.210;21.174;2023-09-19T10:46:51;19.00;99.90
18408;DHT22;9330;52.210;21.174;2023-09-19T10:49:19;19.00;99.90
18408;DHT22;9330;52.210;21.174;2023-09-19T10:51:47;18.90;99.90
18408;DHT22;9330;52.210;21.174;2023-09-19T10:54:18;18.90;99.90
18408;DHT22;9330;52.210;21.174;2023-09-19T10:56:49;18.90;99.90
18408;DHT22;9330;52.210;21.174;2023-09-19T10:59:19;18.90;99.90
18408;DHT22;9330;52.210;21.174;2023-09-19T11:01:47;18.90;99.90
18408;DHT22;9330;52.210;21.174;2023-09-19T11:04:30;18.90;99.90
18408;DHT22;9330;52.210;21.174;2023-09-19T11:07:01;18.90;99.90
18408;DHT22;9330;52.210;21.174;2023-09-19T11:09:49;18.90;99.90
18408;DHT22;9330;52.210;21.174;2023-09-19T11:12:49;18.90;99.90
18408;DHT22;9330;52.210;21.174;2023-09-19T11:18:54;19.00;99.90
18408;DHT22;9330;52.210;21.174;2023-09-19T11:21:52;19.00;99.90
18408;DHT22;9330;52.210;21.174;2023-09-19T11:24:30;18.90;99.90
18408;DHT22;9330;52.210;21.174;2023-09-19T11:27:15;18.90;99.90
18408;DHT22;9330;52.210;21.174;2023-09-19T11:29:43;18.90;99.90
18408;DHT22;9330;52.210;21.174;2023-09-19T11:32:10;19.00;99.90
18408;DHT22;9330;52.210;21.174;2023-09-19T11:34:45;18.90;99.90
18408;DHT22;9330;52.210;21.174;2023-09-19T11:40:45;19.00;99.90
18408;DHT22;9330;52.210;21.174;2023-09-19T11:43:30;19.00;99.90
18408;DHT22;9330;52.210;21.174;2023-09-19T11:46:08;19.10;99.90
18408;DHT22;9330;52.210;21.174;2023-09-19T11:48:38;19.10;99.90
18408;DHT22;9330;52.210;21.174;2023-09-19T11:51:15;19.00;99.90
18408;DHT22;9330;52.210;21.174;2023-09-19T11:53:48;19.10;99.90
18408;DHT22;9330;52.210;21.174;2023-09-19T11:56:16;19.10;99.90
18408;DHT22;9330;52.210;21.174;2023-09-19T11:58:44;19.10;99.90
18408;DHT22;9330;52.210;21.174;2023-09-19T12:01:13;19.10;99.90
18408;DHT22;9330;52.210;21.174;2023-09-19T12:03:47;19.10;99.90
18408;DHT22;9330;52.210;21.174;2023-09-19T12:06:16;19.10;99.90
18408;DHT22;9330;52.210;21.174;2023-09-19T12:08:44;19.10;99.90
18408;DHT22;9330;52.210;21.174;2023-09-19T12:11:16;19.10;99.90
18408;DHT22;9330;52.210;21.174;2023-09-19T12:13:47;19.10;99.90
18408;DHT22;9330;52.210;21.174;2023-09-19T12:16:15;19.10;99.90
18408;DHT22;9330;52.210;21.174;2023-09-19T12:18:43;19.10;99.90
18408;DHT22;9330;52.210;21.174;2023-09-19T12:21:27;19.10;99.90
18408;DHT22;9330;52.210;21.174;2023-09-19T12:24:04;19.10;99.90
18408;DHT22;9330;52.210;21.174;2023-09-19T12:26:38;19.10;99.90
18408;DHT22;9330;52.210;21.174;2023-09-19T12:29:11;19.10;99.90
18408;DHT22;9330;52.210;21.174;2023-09-19T12:31:47;19.10;99.90
18408;DHT22;9330;52.210;21.174;2023-09-19T12:34:16;19.10;99.90
18408;DHT22;9330;52.210;21.174;2023-09-19T12:36:46;19.10;99.90
18408;DHT22;9330;52.210;21.174;2023-09-19T12:39:23;19.10;99.90
18408;DHT22;9330;52.210;21.174;2023-09-19T12:41:51;19.10;99.90
18408;DHT22;9330;52.210;21.174;2023-09-19T12:44:19;19.00;99.90
18408;DHT22;9330;52.210;21.174;2023-09-19T12:46:46;19.00;99.90
18408;DHT22;9330;52.210;21.174;2023-09-19T12:49:17;19.00;99.90
18408;DHT22;9330;52.210;21.174;2023-09-19T12:51:47;18.90;99.90
18408;DHT22;9330;52.210;21.174;2023-09-19T12:54:14;18.90;99.90
18408;DHT22;9330;52.210;21.174;2023-09-19T12:56:42;19.00;99.90
18408;DHT22;9330;52.210;21.174;2023-09-19T12:59:12;18.90;99.90
18408;DHT22;9330;52.210;21.174;2023-09-19T13:01:40;18.90;99.90
18408;DHT22;9330;52.210;21.174;2023-09-19T13:04:13;19.00;99.90
18408;DHT22;9330;52.210;21.174;2023-09-19T13:06:43;19.00;99.90
18408;DHT22;9330;52.210;21.174;2023-09-19T13:09:12;19.10;99.90
18408;DHT22;9330;52.210;21.174;2023-09-19T13:11:40;19.10;99.90
18408;DHT22;9330;52.210;21.174;2023-09-19T13:14:15;19.10;99.90
18408;DHT22;9330;52.210;21.174;2023-09-19T13:16:57;19.10;99.90
18408;DHT22;9330;52.210;21.174;2023-09-19T13:19:37;19.10;99.90
18408;DHT22;9330;52.210;21.174;2023-09-19T13:22:05;19.10;99.90
18408;DHT22;9330;52.210;21.174;2023-09-19T13:24:35;19.10;99.90
18408;DHT22;9330;52.210;21.174;2023-09-19T13:27:05;19.10;99.90
18408;DHT22;9330;52.210;21.174;2023-09-19T13:29:32;19.10;99.90
18408;DHT22;9330;52.210;21.174;2023-09-19T13:31:59;19.10;99.90
18408;DHT22;9330;52.210;21.174;2023-09-19T13:34:27;19.20;99.90
18408;DHT22;9330;52.210;21.174;2023-09-19T13:36:55;19.10;99.90
18408;DHT22;9330;52.210;21.174;2023-09-19T13:39:24;19.10;99.90
18408;DHT22;9330;52.210;21.174;2023-09-19T13:41:52;19.10;99.90
18408;DHT22;9330;52.210;21.174;2023-09-19T13:44:19;19.10;99.90
18408;DHT22;9330;52.210;21.174;2023-09-19T13:46:46;19.20;99.90
18408;DHT22;9330;52.210;21.174;2023-09-19T13:49:13;19.10;99.90
18408;DHT22;9330;52.210;21.174;2023-09-19T13:51:39;19.20;99.90
18408;DHT22;9330;52.210;21.174;2023-09-19T13:54:09;19.20;99.90
18408;DHT22;9330;52.210;21.174;2023-09-19T13:56:37;19.10;99.90
18408;DHT22;9330;52.210;21.174;2023-09-19T13:59:05;19.20;99.90
18408;DHT22;9330;52.210;21.174;2023-09-19T14:01:32;19.20;99.90
18408;DHT22;9330;52.210;21.174;2023-09-19T14:03:59;19.20;99.90
18408;DHT22;9330;52.210;21.174;2023-09-19T14:06:27;19.20;99.90
18408;DHT22;9330;52.210;21.174;2023-09-19T14:08:53;19.20;99.90
18408;DHT22;9330;52.210;21.174;2023-09-19T14:11:20;19.20;99.90
18408;DHT22;9330;52.210;21.174;2023-09-19T14:13:47;19.20;99.90
18408;DHT22;9330;52.210;21.174;2023-09-19T14:16:16;19.20;99.90
18408;DHT22;9330;52.210;21.174;2023-09-19T14:18:44;19.20;99.90
18408;DHT22;9330;52.210;21.174;2023-09-19T14:21:11;19.20;99.90
18408;DHT22;9330;52.210;21.174;2023-09-19T14:23:38;19.20;99.90
18408;DHT22;9330;52.210;21.174;2023-09-19T14:26:05;19.20;99.90
18408;DHT22;9330;52.210;21.174;2023-09-19T14:28:32;19.30;99.90
18408;DHT22;9330;52.210;21.174;2023-09-19T14:31:04;19.30;99.90
18408;DHT22;9330;52.210;21.174;2023-09-19T14:33:33;19.30;99.90
18408;DHT22;9330;52.210;21.174;2023-09-19T14:36:02;19.30;99.90
18408;DHT22;9330;52.210;21.174;2023-09-19T14:38:31;19.40;99.90
18408;DHT22;9330;52.210;21.174;2023-09-19T14:40:59;19.40;99.90
18408;DHT22;9330;52.210;21.174;2023-09-19T14:43:26;19.40;99.90
18408;DHT22;9330;52.210;21.174;2023-09-19T14:45:54;19.40;99.90
18408;DHT22;9330;52.210;21.174;2023-09-19T14:48:22;19.30;99.90
18408;DHT22;9330;52.210;21.174;2023-09-19T14:50:52;19.30;99.90
18408;DHT22;9330;52.210;21.174;2023-09-19T14:53:20;19.30;99.90
18408;DHT22;9330;52.210;21.174;2023-09-19T14:55:47;19.30;99.90
18408;DHT22;9330;52.210;21.174;2023-09-19T14:58:17;19.30;99.90
18408;DHT22;9330;52.210;21.174;2023-09-19T15:00:44;19.30;99.90
18408;DHT22;9330;52.210;21.174;2023-09-19T15:03:11;19.30;99.90
18408;DHT22;9330;52.210;21.174;2023-09-19T15:05:39;19.30;99.90
18408;DHT22;9330;52.210;21.174;2023-09-19T15:08:07;19.30;99.90
18408;DHT22;9330;52.210;21.174;2023-09-19T15:10:34;19.20;99.90
18408;DHT22;9330;52.210;21.174;2023-09-19T15:13:01;19.30;99.90
18408;DHT22;9330;52.210;21.174;2023-09-19T15:15:28;19.20;99.90
18408;DHT22;9330;52.210;21.174;2023-09-19T15:17:54;19.30;99.90
18408;DHT22;9330;52.210;21.174;2023-09-19T15:20:21;19.30;99.90
18408;DHT22;9330;52.210;21.174;2023-09-19T15:22:49;19.30;99.90
18408;DHT22;9330;52.210;21.174;2023-09-19T15:25:18;19.30;99.90
18408;DHT22;9330;52.210;21.174;2023-09-19T15:27:44;19.30;99.90
18408;DHT22;9330;52.210;21.174;2023-09-19T15:30:12;19.30;99.90
18408;DHT22;9330;52.210;21.174;2023-09-19T15:32:40;19.30;99.90
18408;DHT22;9330;52.210;21.174;2023-09-19T15:35:08;19.30;99.90
18408;DHT22;9330;52.210;21.174;2023-09-19T15:37:37;19.30;99.90
18408;DHT22;9330;52.210;21.174;2023-09-19T15:40:04;19.20;99.90
18408;DHT22;9330;52.210;21.174;2023-09-19T15:42:35;19.20;99.90
18408;DHT22;9330;52.210;21.174;2023-09-19T15:45:02;19.20;99.90
18408;DHT22;9330;52.210;21.174;2023-09-19T15:47:29;19.10;99.90
18408;DHT22;9330;52.210;21.174;2023-09-19T15:49:56;19.10;99.90
18408;DHT22;9330;52.210;21.174;2023-09-19T15:52:23;19.10;99.90